sensor_id;sensor_type;location;lat;lon;timestamp;P1;durP1;ratioP1;P2;durP2;ratioP2
45764;SDS011;31474;45.332;10.230;2022-11-20T00:03:37;23.40;;;16.10;;
45764;SDS011;31474;45.332;10.230;2022-11-20T00:06:04;23.02;;;13.93;;
45764;SDS011;31474;45.332;10.230;2022-11-20T00:08:32;24.15;;;15.43;;
45764;SDS011;31474;45.332;10.230;2022-11-20T00:11:02;22.27;;;14.95;;
45764;SDS011;31474;45.332;10.230;2022-11-20T00:13:31;17.75;;;13.82;;
45764;SDS011;31474;45.332;10.230;2022-11-20T00:15:58;19.67;;;13.10;;
45764;SDS011;31474;45.332;10.230;2022-11-20T00:18:25;18.15;;;12.82;;
45764;SDS011;31474;45.332;10.230;2022-11-20T00:20:51;29.35;;;18.92;;
45764;SDS011;31474;45.332;10.230;2022-11-20T00:23:17;24.83;;;15.55;;
45764;SDS011;31474;45.332;10.230;2022-11-20T00:25:43;19.05;;;13.40;;
45764;SDS011;31474;45.332;10.230;2022-11-20T00:28:09;20.05;;;14.38;;
45764;SDS011;31474;45.332;10.230;2022-11-20T00:30:34;19.08;;;14.43;;
45764;SDS011;31474;45.332;10.230;2022-11-20T00:33:00;22.40;;;15.23;;
45764;SDS011;31474;45.332;10.230;2022-11-20T00:35:26;24.08;;;14.50;;
45764;SDS011;31474;45.332;10.230;2022-11-20T00:37:51;21.13;;;14.50;;
45764;SDS011;31474;45.332;10.230;2022-11-20T00:40:17;21.42;;;14.05;;
45764;SDS011;31474;45.332;10.230;2022-11-20T00:42:43;20.83;;;13.77;;
45764;SDS011;31474;45.332;10.230;2022-11-20T00:45:08;18.98;;;13.18;;
45764;SDS011;31474;45.332;10.230;2022-11-20T00:47:34;25.15;;;14.40;;
45764;SDS011;31474;45.332;10.230;2022-11-20T00:50:00;21.25;;;13.25;;
45764;SDS011;31474;45.332;10.230;2022-11-20T00:52:25;18.02;;;12.95;;
45764;SDS011;31474;45.332;10.230;2022-11-20T00:54:51;14.75;;;11.35;;
45764;SDS011;31474;45.332;10.230;2022-11-20T00:57:16;22.10;;;13.63;;
45764;SDS011;31474;45.332;10.230;2022-11-20T00:59:42;14.90;;;11.02;;
45764;SDS011;31474;45.332;10.230;2022-11-20T01:02:08;18.13;;;11.93;;
45764;SDS011;31474;45.332;10.230;2022-11-20T01:04:33;13.18;;;10.90;;
45764;SDS011;31474;45.332;10.230;2022-11-20T01:06:59;14.05;;;10.80;;
45764;SDS011;31474;45.332;10.230;2022-11-20T01:09:25;21.88;;;13.40;;
45764;SDS011;31474;45.332;10.230;2022-11-20T01:11:50;15.80;;;11.23;;
45764;SDS011;31474;45.332;10.230;2022-11-20T01:14:17;15.32;;;11.77;;
45764;SDS011;31474;45.332;10.230;2022-11-20T01:16:45;18.63;;;12.45;;
45764;SDS011;31474;45.332;10.230;2022-11-20T01:19:17;14.35;;;11.05;;
45764;SDS011;31474;45.332;10.230;2022-11-20T01:21:45;18.52;;;11.80;;
45764;SDS011;31474;45.332;10.230;2022-11-20T01:24:13;24.00;;;14.40;;
45764;SDS011;31474;45.332;10.230;2022-11-20T01:26:41;13.63;;;10.80;;
45764;SDS011;31474;45.332;10.230;2022-11-20T01:29:29;20.55;;;12.88;;
45764;SDS011;31474;45.332;10.230;2022-11-20T01:31:54;15.88;;;11.70;;
45764;SDS011;31474;45.332;10.230;2022-11-20T01:34:21;16.60;;;12.55;;
45764;SDS011;31474;45.332;10.230;2022-11-20T01:36:47;19.42;;;12.40;;
45764;SDS011;31474;45.332;10.230;2022-11-20T01:39:15;15.45;;;11.68;;
45764;SDS011;31474;45.332;10.230;2022-11-20T01:41:42;16.45;;;12.85;;
45764;SDS011;31474;45.332;10.230;2022-11-20T01:44:45;19.75;;;13.02;;
45764;SDS011;31474;45.332;10.230;2022-11-20T01:47:22;16.83;;;11.77;;
45764;SDS011;31474;45.332;10.230;2022-11-20T01:50:06;13.60;;;10.10;;
45764;SDS011;31474;45.332;10.230;2022-11-20T01:55:25;12.82;;;10.65;;
45764;SDS011;31474;45.332;10.230;2022-11-20T01:57:57;17.08;;;11.25;;
45764;SDS011;31474;45.332;10.230;2022-11-20T02:00:23;21.92;;;14.63;;
45764;SDS011;31474;45.332;10.230;2022-11-20T02:02:59;13.55;;;11.32;;
45764;SDS011;31474;45.332;10.230;2022-11-20T02:05:36;22.02;;;12.75;;
45764;SDS011;31474;45.332;10.230;2022-11-20T02:08:06;16.30;;;11.45;;
45764;SDS011;31474;45.332;10.230;2022-11-20T02:10:32;18.65;;;14.02;;
45764;SDS011;31474;45.332;10.230;2022-11-20T02:12:58;15.23;;;11.20;;
45764;SDS011;31474;45.332;10.230;2022-11-20T02:15:43;19.15;;;14.57;;
45764;SDS011;31474;45.332;10.230;2022-11-20T02:18:10;21.67;;;14.27;;
45764;SDS011;31474;45.332;10.230;2022-11-20T02:20:39;24.17;;;14.18;;
45764;SDS011;31474;45.332;10.230;2022-11-20T02:23:17;17.02;;;12.48;;
45764;SDS011;31474;45.332;10.230;2022-11-20T02:26:04;17.58;;;13.27;;
45764;SDS011;31474;45.332;10.230;2022-11-20T02:28:34;19.52;;;13.90;;
45764;SDS011;31474;45.332;10.230;2022-11-20T02:31:00;14.52;;;11.98;;
45764;SDS011;31474;45.332;10.230;2022-11-20T02:33:26;17.92;;;12.93;;
45764;SDS011;31474;45.332;10.230;2022-11-20T02:35:51;20.48;;;13.90;;
45764;SDS011;31474;45.332;10.230;2022-11-20T02:38:17;17.42;;;13.18;;
45764;SDS011;31474;45.332;10.230;2022-11-20T02:40:43;18.30;;;13.80;;
45764;SDS011;31474;45.332;10.230;2022-11-20T02:43:09;13.75;;;11.63;;
45764;SDS011;31474;45.332;10.230;2022-11-20T02:45:35;16.20;;;12.15;;
45764;SDS011;31474;45.332;10.230;2022-11-20T02:48:01;17.23;;;13.18;;
45764;SDS011;31474;45.332;10.230;2022-11-20T02:50:26;13.40;;;10.80;;
45764;SDS011;31474;45.332;10.230;2022-11-20T02:52:52;16.17;;;12.13;;
45764;SDS011;31474;45.332;10.230;2022-11-20T02:55:18;13.75;;;12.13;;
45764;SDS011;31474;45.332;10.230;2022-11-20T02:57:43;16.88;;;12.77;;
45764;SDS011;31474;45.332;10.230;2022-11-20T03:00:09;16.25;;;11.98;;
45764;SDS011;31474;45.332;10.230;2022-11-20T03:02:35;15.52;;;12.50;;
45764;SDS011;31474;45.332;10.230;2022-11-20T03:05:01;11.00;;;9.90;;
45764;SDS011;31474;45.332;10.230;2022-11-20T03:07:27;17.38;;;11.80;;
45764;SDS011;31474;45.332;10.230;2022-11-20T03:09:52;14.93;;;11.63;;
45764;SDS011;31474;45.332;10.230;2022-11-20T03:12:18;20.10;;;13.57;;
45764;SDS011;31474;45.332;10.230;2022-11-20T03:14:43;15.13;;;11.02;;
45764;SDS011;31474;45.332;10.230;2022-11-20T03:17:09;12.80;;;10.32;;
45764;SDS011;31474;45.332;10.230;2022-11-20T03:19:35;13.85;;;10.43;;
45764;SDS011;31474;45.332;10.230;2022-11-20T03:22:00;14.90;;;11.52;;
45764;SDS011;31474;45.332;10.230;2022-11-20T03:24:26;14.85;;;11.95;;
45764;SDS011;31474;45.332;10.230;2022-11-20T03:26:52;14.98;;;11.63;;
45764;SDS011;31474;45.332;10.230;2022-11-20T03:29:18;14.55;;;10.73;;
45764;SDS011;31474;45.332;10.230;2022-11-20T03:31:43;13.65;;;10.32;;
45764;SDS011;31474;45.332;10.230;2022-11-20T03:34:09;15.93;;;12.00;;
45764;SDS011;31474;45.332;10.230;2022-11-20T03:36:39;15.73;;;12.07;;
45764;SDS011;31474;45.332;10.230;2022-11-20T03:39:05;16.17;;;11.98;;
45764;SDS011;31474;45.332;10.230;2022-11-20T03:41:35;15.43;;;11.82;;
45764;SDS011;31474;45.332;10.230;2022-11-20T03:44:03;13.98;;;9.95;;
45764;SDS011;31474;45.332;10.230;2022-11-20T03:46:30;11.73;;;10.52;;
45764;SDS011;31474;45.332;10.230;2022-11-20T03:48:56;12.13;;;10.15;;
45764;SDS011;31474;45.332;10.230;2022-11-20T03:51:23;12.35;;;9.38;;
45764;SDS011;31474;45.332;10.230;2022-11-20T03:53:51;9.23;;;8.27;;
45764;SDS011;31474;45.332;10.230;2022-11-20T03:56:20;12.70;;;10.15;;
45764;SDS011;31474;45.332;10.230;2022-11-20T03:58:50;11.13;;;9.02;;
45764;SDS011;31474;45.332;10.230;2022-11-20T04:01:17;12.20;;;10.55;;
45764;SDS011;31474;45.332;10.230;2022-11-20T04:03:45;13.02;;;10.82;;
45764;SDS011;31474;45.332;10.230;2022-11-20T04:06:12;12.98;;;11.38;;
45764;SDS011;31474;45.332;10.230;2022-11-20T04:08:41;11.15;;;9.95;;
45764;SDS011;31474;45.332;10.230;2022-11-20T04:11:20;12.85;;;10.32;;
45764;SDS011;31474;45.332;10.230;2022-11-20T04:13:51;14.95;;;11.55;;
45764;SDS011;31474;45.332;10.230;2022-11-20T04:16:18;12.27;;;10.55;;
45764;SDS011;31474;45.332;10.230;2022-11-20T04:18:45;12.80;;;10.38;;
45764;SDS011;31474;45.332;10.230;2022-11-20T04:21:11;14.60;;;10.15;;
45764;SDS011;31474;45.332;10.230;2022-11-20T04:23:37;14.55;;;10.45;;
45764;SDS011;31474;45.332;10.230;2022-11-20T04:26:10;18.30;;;12.40;;
45764;SDS011;31474;45.332;10.230;2022-11-20T04:28:36;14.38;;;11.05;;
45764;SDS011;31474;45.332;10.230;2022-11-20T04:31:07;17.77;;;11.68;;
45764;SDS011;31474;45.332;10.230;2022-11-20T04:33:37;17.20;;;12.18;;
45764;SDS011;31474;45.332;10.230;2022-11-20T04:36:04;16.40;;;12.57;;
45764;SDS011;31474;45.332;10.230;2022-11-20T04:38:31;15.27;;;12.10;;
45764;SDS011;31474;45.332;10.230;2022-11-20T04:41:00;15.02;;;11.65;;
45764;SDS011;31474;45.332;10.230;2022-11-20T04:43:28;17.33;;;12.10;;
45764;SDS011;31474;45.332;10.230;2022-11-20T04:45:55;14.55;;;11.85;;
45764;SDS011;31474;45.332;10.230;2022-11-20T04:48:21;16.92;;;12.90;;
45764;SDS011;31474;45.332;10.230;2022-11-20T04:50:47;16.52;;;12.13;;
45764;SDS011;31474;45.332;10.230;2022-11-20T04:53:14;17.25;;;12.35;;
45764;SDS011;31474;45.332;10.230;2022-11-20T04:55:40;15.35;;;12.48;;
45764;SDS011;31474;45.332;10.230;2022-11-20T04:58:05;14.07;;;11.75;;
45764;SDS011;31474;45.332;10.230;2022-11-20T05:00:31;13.57;;;11.63;;
45764;SDS011;31474;45.332;10.230;2022-11-20T05:02:57;15.18;;;11.65;;
45764;SDS011;31474;45.332;10.230;2022-11-20T05:05:22;18.50;;;11.93;;
45764;SDS011;31474;45.332;10.230;2022-11-20T05:07:48;15.98;;;12.18;;
45764;SDS011;31474;45.332;10.230;2022-11-20T05:10:14;10.13;;;8.95;;
45764;SDS011;31474;45.332;10.230;2022-11-20T05:12:40;16.98;;;11.68;;
45764;SDS011;31474;45.332;10.230;2022-11-20T05:15:06;13.38;;;11.40;;
45764;SDS011;31474;45.332;10.230;2022-11-20T05:17:32;14.93;;;11.57;;
45764;SDS011;31474;45.332;10.230;2022-11-20T05:19:57;13.82;;;12.18;;
45764;SDS011;31474;45.332;10.230;2022-11-20T05:22:23;15.98;;;12.38;;
45764;SDS011;31474;45.332;10.230;2022-11-20T05:24:48;12.82;;;10.77;;
45764;SDS011;31474;45.332;10.230;2022-11-20T05:27:14;13.88;;;10.30;;
45764;SDS011;31474;45.332;10.230;2022-11-20T05:29:40;13.23;;;10.10;;
45764;SDS011;31474;45.332;10.230;2022-11-20T05:32:06;12.18;;;9.70;;
45764;SDS011;31474;45.332;10.230;2022-11-20T05:34:34;9.65;;;8.15;;
45764;SDS011;31474;45.332;10.230;2022-11-20T05:37:00;12.02;;;9.50;;
45764;SDS011;31474;45.332;10.230;2022-11-20T05:39:26;13.38;;;10.63;;
45764;SDS011;31474;45.332;10.230;2022-11-20T05:41:51;12.57;;;9.73;;
45764;SDS011;31474;45.332;10.230;2022-11-20T05:44:37;12.05;;;9.82;;
45764;SDS011;31474;45.332;10.230;2022-11-20T05:47:02;11.23;;;9.75;;
45764;SDS011;31474;45.332;10.230;2022-11-20T05:49:28;14.68;;;10.30;;
45764;SDS011;31474;45.332;10.230;2022-11-20T05:51:54;14.15;;;10.52;;
45764;SDS011;31474;45.332;10.230;2022-11-20T05:54:19;14.82;;;10.20;;
45764;SDS011;31474;45.332;10.230;2022-11-20T05:56:45;14.95;;;11.63;;
45764;SDS011;31474;45.332;10.230;2022-11-20T05:59:10;17.15;;;11.07;;
45764;SDS011;31474;45.332;10.230;2022-11-20T06:01:36;15.02;;;10.80;;
45764;SDS011;31474;45.332;10.230;2022-11-20T06:04:02;11.48;;;10.10;;
45764;SDS011;31474;45.332;10.230;2022-11-20T06:06:27;13.68;;;9.77;;
45764;SDS011;31474;45.332;10.230;2022-11-20T06:08:54;12.70;;;10.77;;
45764;SDS011;31474;45.332;10.230;2022-11-20T06:11:20;13.88;;;10.82;;
45764;SDS011;31474;45.332;10.230;2022-11-20T06:13:45;13.00;;;10.60;;
45764;SDS011;31474;45.332;10.230;2022-11-20T06:16:13;13.45;;;10.02;;
45764;SDS011;31474;45.332;10.230;2022-11-20T06:18:40;15.65;;;10.60;;
45764;SDS011;31474;45.332;10.230;2022-11-20T06:21:07;11.75;;;9.80;;
45764;SDS011;31474;45.332;10.230;2022-11-20T06:23:35;11.25;;;9.35;;
45764;SDS011;31474;45.332;10.230;2022-11-20T06:26:04;14.25;;;10.48;;
45764;SDS011;31474;45.332;10.230;2022-11-20T06:28:33;11.07;;;9.90;;
45764;SDS011;31474;45.332;10.230;2022-11-20T06:30:58;10.52;;;9.43;;
45764;SDS011;31474;45.332;10.230;2022-11-20T06:33:24;12.40;;;9.00;;
45764;SDS011;31474;45.332;10.230;2022-11-20T06:35:50;13.13;;;10.43;;
45764;SDS011;31474;45.332;10.230;2022-11-20T06:38:16;15.85;;;9.80;;
45764;SDS011;31474;45.332;10.230;2022-11-20T06:40:42;12.43;;;10.20;;
45764;SDS011;31474;45.332;10.230;2022-11-20T06:43:09;18.50;;;9.23;;
45764;SDS011;31474;45.332;10.230;2022-11-20T06:45:35;10.70;;;8.45;;
45764;SDS011;31474;45.332;10.230;2022-11-20T06:48:01;10.82;;;9.55;;
45764;SDS011;31474;45.332;10.230;2022-11-20T06:50:27;9.98;;;8.40;;
45764;SDS011;31474;45.332;10.230;2022-11-20T06:52:53;11.65;;;8.77;;
45764;SDS011;31474;45.332;10.230;2022-11-20T06:55:18;10.52;;;8.45;;
45764;SDS011;31474;45.332;10.230;2022-11-20T06:57:44;15.30;;;8.90;;
45764;SDS011;31474;45.332;10.230;2022-11-20T07:00:12;13.23;;;9.98;;
45764;SDS011;31474;45.332;10.230;2022-11-20T07:02:38;13.48;;;10.10;;
45764;SDS011;31474;45.332;10.230;2022-11-20T07:05:04;12.82;;;9.43;;
45764;SDS011;31474;45.332;10.230;2022-11-20T07:07:29;12.45;;;9.80;;
45764;SDS011;31474;45.332;10.230;2022-11-20T07:09:55;10.88;;;9.40;;
45764;SDS011;31474;45.332;10.230;2022-11-20T07:12:21;14.25;;;10.63;;
45764;SDS011;31474;45.332;10.230;2022-11-20T07:14:46;13.98;;;11.05;;
45764;SDS011;31474;45.332;10.230;2022-11-20T07:17:12;13.93;;;10.15;;
45764;SDS011;31474;45.332;10.230;2022-11-20T07:19:37;27.00;;;16.55;;
45764;SDS011;31474;45.332;10.230;2022-11-20T07:22:03;13.82;;;9.88;;
45764;SDS011;31474;45.332;10.230;2022-11-20T07:24:29;24.75;;;16.38;;
45764;SDS011;31474;45.332;10.230;2022-11-20T07:26:54;39.08;;;21.65;;
45764;SDS011;31474;45.332;10.230;2022-11-20T07:29:20;50.25;;;26.85;;
45764;SDS011;31474;45.332;10.230;2022-11-20T07:31:45;90.53;;;42.95;;
45764;SDS011;31474;45.332;10.230;2022-11-20T07:34:11;39.97;;;19.88;;
45764;SDS011;31474;45.332;10.230;2022-11-20T07:36:37;16.58;;;11.32;;
45764;SDS011;31474;45.332;10.230;2022-11-20T07:39:03;12.48;;;10.50;;
45764;SDS011;31474;45.332;10.230;2022-11-20T07:41:28;13.10;;;9.93;;
45764;SDS011;31474;45.332;10.230;2022-11-20T07:43:54;12.13;;;10.68;;
45764;SDS011;31474;45.332;10.230;2022-11-20T07:46:19;11.93;;;10.60;;
45764;SDS011;31474;45.332;10.230;2022-11-20T07:48:45;10.40;;;8.40;;
45764;SDS011;31474;45.332;10.230;2022-11-20T07:51:11;11.10;;;8.43;;
45764;SDS011;31474;45.332;10.230;2022-11-20T07:53:36;9.68;;;8.50;;
45764;SDS011;31474;45.332;10.230;2022-11-20T07:56:02;8.93;;;8.02;;
45764;SDS011;31474;45.332;10.230;2022-11-20T07:58:28;10.30;;;7.95;;
45764;SDS011;31474;45.332;10.230;2022-11-20T08:00:55;19.33;;;12.07;;
45764;SDS011;31474;45.332;10.230;2022-11-20T08:03:21;10.50;;;8.73;;
45764;SDS011;31474;45.332;10.230;2022-11-20T08:05:46;8.90;;;7.22;;
45764;SDS011;31474;45.332;10.230;2022-11-20T08:08:12;10.90;;;8.07;;
45764;SDS011;31474;45.332;10.230;2022-11-20T08:10:37;13.40;;;8.35;;
45764;SDS011;31474;45.332;10.230;2022-11-20T08:13:03;9.93;;;7.70;;
45764;SDS011;31474;45.332;10.230;2022-11-20T08:15:48;9.43;;;7.63;;
45764;SDS011;31474;45.332;10.230;2022-11-20T08:18:15;10.25;;;8.68;;
45764;SDS011;31474;45.332;10.230;2022-11-20T08:20:42;9.82;;;8.18;;
45764;SDS011;31474;45.332;10.230;2022-11-20T08:23:08;10.07;;;8.50;;
45764;SDS011;31474;45.332;10.230;2022-11-20T08:25:35;10.18;;;7.28;;
45764;SDS011;31474;45.332;10.230;2022-11-20T08:28:02;13.10;;;7.32;;
45764;SDS011;31474;45.332;10.230;2022-11-20T08:30:29;10.93;;;8.48;;
45764;SDS011;31474;45.332;10.230;2022-11-20T08:33:00;39.58;;;19.52;;
45764;SDS011;31474;45.332;10.230;2022-11-20T08:35:34;21.42;;;13.02;;
45764;SDS011;31474;45.332;10.230;2022-11-20T08:38:02;26.42;;;14.95;;
45764;SDS011;31474;45.332;10.230;2022-11-20T08:40:28;30.75;;;16.42;;
45764;SDS011;31474;45.332;10.230;2022-11-20T08:42:54;41.25;;;19.45;;
45764;SDS011;31474;45.332;10.230;2022-11-20T08:45:20;27.83;;;14.10;;
45764;SDS011;31474;45.332;10.230;2022-11-20T08:47:45;23.10;;;12.98;;
45764;SDS011;31474;45.332;10.230;2022-11-20T08:50:12;24.27;;;13.77;;
45764;SDS011;31474;45.332;10.230;2022-11-20T08:52:39;28.92;;;15.73;;
45764;SDS011;31474;45.332;10.230;2022-11-20T08:55:05;22.27;;;12.10;;
45764;SDS011;31474;45.332;10.230;2022-11-20T08:57:34;21.45;;;11.30;;
45764;SDS011;31474;45.332;10.230;2022-11-20T09:00:01;23.15;;;12.20;;
45764;SDS011;31474;45.332;10.230;2022-11-20T09:02:29;16.60;;;12.68;;
45764;SDS011;31474;45.332;10.230;2022-11-20T09:04:54;29.80;;;17.58;;
45764;SDS011;31474;45.332;10.230;2022-11-20T09:07:20;26.60;;;17.90;;
45764;SDS011;31474;45.332;10.230;2022-11-20T09:09:46;25.02;;;15.27;;
45764;SDS011;31474;45.332;10.230;2022-11-20T09:12:11;22.63;;;15.35;;
45764;SDS011;31474;45.332;10.230;2022-11-20T09:14:37;19.33;;;13.25;;
45764;SDS011;31474;45.332;10.230;2022-11-20T09:17:03;22.27;;;14.07;;
45764;SDS011;31474;45.332;10.230;2022-11-20T09:19:28;20.05;;;13.98;;
45764;SDS011;31474;45.332;10.230;2022-11-20T09:21:54;20.15;;;13.48;;
45764;SDS011;31474;45.332;10.230;2022-11-20T09:24:20;18.98;;;13.80;;
45764;SDS011;31474;45.332;10.230;2022-11-20T09:26:46;24.45;;;15.30;;
45764;SDS011;31474;45.332;10.230;2022-11-20T09:29:12;18.40;;;13.60;;
45764;SDS011;31474;45.332;10.230;2022-11-20T09:31:37;23.90;;;15.75;;
45764;SDS011;31474;45.332;10.230;2022-11-20T09:34:03;20.40;;;15.70;;
45764;SDS011;31474;45.332;10.230;2022-11-20T09:36:29;20.92;;;14.30;;
45764;SDS011;31474;45.332;10.230;2022-11-20T09:38:55;17.85;;;13.32;;
45764;SDS011;31474;45.332;10.230;2022-11-20T09:43:53;22.50;;;14.98;;
45764;SDS011;31474;45.332;10.230;2022-11-20T09:46:36;20.98;;;16.10;;
45764;SDS011;31474;45.332;10.230;2022-11-20T09:54:30;20.27;;;14.63;;
45764;SDS011;31474;45.332;10.230;2022-11-20T09:56:59;20.92;;;14.32;;
45764;SDS011;31474;45.332;10.230;2022-11-20T10:02:17;22.90;;;15.52;;
45764;SDS011;31474;45.332;10.230;2022-11-20T10:13:06;21.50;;;14.52;;
45764;SDS011;31474;45.332;10.230;2022-11-20T10:15:49;20.88;;;14.90;;
45764;SDS011;31474;45.332;10.230;2022-11-20T10:18:31;22.48;;;15.63;;
45764;SDS011;31474;45.332;10.230;2022-11-20T10:29:38;22.15;;;16.08;;
45764;SDS011;31474;45.332;10.230;2022-11-20T10:32:13;23.45;;;18.10;;
45764;SDS011;31474;45.332;10.230;2022-11-20T10:37:24;27.85;;;18.48;;
45764;SDS011;31474;45.332;10.230;2022-11-20T10:39:54;20.73;;;17.13;;
45764;SDS011;31474;45.332;10.230;2022-11-20T10:42:36;25.88;;;15.95;;
45764;SDS011;31474;45.332;10.230;2022-11-20T10:48:39;27.80;;;17.55;;
45764;SDS011;31474;45.332;10.230;2022-11-20T10:50:54;26.38;;;18.52;;
45764;SDS011;31474;45.332;10.230;2022-11-20T10:53:33;28.67;;;19.65;;
45764;SDS011;31474;45.332;10.230;2022-11-20T10:58:59;30.23;;;19.83;;
45764;SDS011;31474;45.332;10.230;2022-11-20T11:01:42;24.10;;;18.35;;
45764;SDS011;31474;45.332;10.230;2022-11-20T11:07:42;25.33;;;20.08;;
45764;SDS011;31474;45.332;10.230;2022-11-20T11:10:16;26.67;;;19.35;;
45764;SDS011;31474;45.332;10.230;2022-11-20T11:12:46;28.13;;;17.63;;
45764;SDS011;31474;45.332;10.230;2022-11-20T11:15:28;29.90;;;19.40;;
45764;SDS011;31474;45.332;10.230;2022-11-20T11:18:01;29.60;;;21.35;;
45764;SDS011;31474;45.332;10.230;2022-11-20T11:20:26;28.30;;;19.52;;
45764;SDS011;31474;45.332;10.230;2022-11-20T11:22:53;27.50;;;19.27;;
45764;SDS011;31474;45.332;10.230;2022-11-20T11:27:51;28.17;;;20.70;;
45764;SDS011;31474;45.332;10.230;2022-11-20T11:30:20;32.97;;;21.10;;
45764;SDS011;31474;45.332;10.230;2022-11-20T11:32:46;29.45;;;20.67;;
45764;SDS011;31474;45.332;10.230;2022-11-20T11:35:45;29.52;;;20.77;;
45764;SDS011;31474;45.332;10.230;2022-11-20T11:38:42;29.20;;;20.77;;
45764;SDS011;31474;45.332;10.230;2022-11-20T11:41:03;30.83;;;21.40;;
45764;SDS011;31474;45.332;10.230;2022-11-20T11:43:32;33.80;;;23.30;;
45764;SDS011;31474;45.332;10.230;2022-11-20T11:46:27;31.98;;;21.08;;
45764;SDS011;31474;45.332;10.230;2022-11-20T11:48:57;27.75;;;20.45;;
45764;SDS011;31474;45.332;10.230;2022-11-20T11:51:26;32.65;;;19.73;;
45764;SDS011;31474;45.332;10.230;2022-11-20T11:53:58;29.83;;;20.65;;
45764;SDS011;31474;45.332;10.230;2022-11-20T11:56:25;31.83;;;21.95;;
45764;SDS011;31474;45.332;10.230;2022-11-20T11:58:52;28.15;;;19.90;;
45764;SDS011;31474;45.332;10.230;2022-11-20T12:01:31;33.08;;;20.65;;
45764;SDS011;31474;45.332;10.230;2022-11-20T12:04:10;26.95;;;19.05;;
45764;SDS011;31474;45.332;10.230;2022-11-20T12:06:50;25.63;;;19.85;;
45764;SDS011;31474;45.332;10.230;2022-11-20T12:09:32;29.17;;;18.40;;
45764;SDS011;31474;45.332;10.230;2022-11-20T12:12:10;26.25;;;18.15;;
45764;SDS011;31474;45.332;10.230;2022-11-20T12:14:55;28.20;;;19.42;;
45764;SDS011;31474;45.332;10.230;2022-11-20T12:17:21;28.17;;;17.85;;
45764;SDS011;31474;45.332;10.230;2022-11-20T12:19:47;27.27;;;19.15;;
45764;SDS011;31474;45.332;10.230;2022-11-20T12:25:24;23.13;;;17.50;;
45764;SDS011;31474;45.332;10.230;2022-11-20T12:30:28;25.00;;;17.65;;
45764;SDS011;31474;45.332;10.230;2022-11-20T12:33:02;24.55;;;17.45;;
45764;SDS011;31474;45.332;10.230;2022-11-20T12:41:22;26.95;;;17.85;;
45764;SDS011;31474;45.332;10.230;2022-11-20T12:47:46;32.67;;;20.40;;
45764;SDS011;31474;45.332;10.230;2022-11-20T12:58:12;26.23;;;18.02;;
45764;SDS011;31474;45.332;10.230;2022-11-20T13:00:57;31.17;;;21.15;;
45764;SDS011;31474;45.332;10.230;2022-11-20T13:03:41;29.35;;;19.27;;
45764;SDS011;31474;45.332;10.230;2022-11-20T13:06:16;28.75;;;19.30;;
45764;SDS011;31474;45.332;10.230;2022-11-20T13:08:47;30.30;;;20.58;;
45764;SDS011;31474;45.332;10.230;2022-11-20T13:17:30;30.17;;;20.83;;
45764;SDS011;31474;45.332;10.230;2022-11-20T13:20:15;28.38;;;19.13;;
45764;SDS011;31474;45.332;10.230;2022-11-20T13:22:43;41.85;;;25.60;;
45764;SDS011;31474;45.332;10.230;2022-11-20T13:27:55;46.85;;;29.50;;
45764;SDS011;31474;45.332;10.230;2022-11-20T13:30:23;37.25;;;25.05;;
45764;SDS011;31474;45.332;10.230;2022-11-20T13:33:36;34.53;;;22.95;;
45764;SDS011;31474;45.332;10.230;2022-11-20T13:35:59;34.90;;;22.73;;
45764;SDS011;31474;45.332;10.230;2022-11-20T13:38:25;32.15;;;22.05;;
45764;SDS011;31474;45.332;10.230;2022-11-20T13:45:55;30.10;;;20.83;;
45764;SDS011;31474;45.332;10.230;2022-11-20T13:48:24;32.50;;;20.30;;
45764;SDS011;31474;45.332;10.230;2022-11-20T13:51:14;27.17;;;20.23;;
45764;SDS011;31474;45.332;10.230;2022-11-20T13:59:13;28.20;;;19.85;;
45764;SDS011;31474;45.332;10.230;2022-11-20T14:02:00;25.20;;;18.45;;
45764;SDS011;31474;45.332;10.230;2022-11-20T14:04:27;28.88;;;20.10;;
45764;SDS011;31474;45.332;10.230;2022-11-20T14:06:55;26.73;;;17.67;;
45764;SDS011;31474;45.332;10.230;2022-11-20T14:09:29;23.27;;;16.77;;
45764;SDS011;31474;45.332;10.230;2022-11-20T14:11:56;31.90;;;18.73;;
45764;SDS011;31474;45.332;10.230;2022-11-20T14:14:31;24.48;;;17.45;;
45764;SDS011;31474;45.332;10.230;2022-11-20T14:17:08;23.65;;;18.65;;
45764;SDS011;31474;45.332;10.230;2022-11-20T14:19:42;27.83;;;18.48;;
45764;SDS011;31474;45.332;10.230;2022-11-20T14:24:43;26.42;;;19.17;;
45764;SDS011;31474;45.332;10.230;2022-11-20T14:27:14;23.52;;;17.25;;
45764;SDS011;31474;45.332;10.230;2022-11-20T14:29:42;24.23;;;17.97;;
45764;SDS011;31474;45.332;10.230;2022-11-20T14:32:09;22.77;;;17.17;;
45764;SDS011;31474;45.332;10.230;2022-11-20T14:34:37;26.95;;;17.73;;
45764;SDS011;31474;45.332;10.230;2022-11-20T14:37:09;26.73;;;17.13;;
45764;SDS011;31474;45.332;10.230;2022-11-20T14:39:40;23.33;;;16.50;;
45764;SDS011;31474;45.332;10.230;2022-11-20T14:42:14;22.38;;;16.73;;
45764;SDS011;31474;45.332;10.230;2022-11-20T14:44:41;24.35;;;17.85;;
45764;SDS011;31474;45.332;10.230;2022-11-20T14:47:09;23.95;;;17.88;;
45764;SDS011;31474;45.332;10.230;2022-11-20T14:49:37;24.65;;;17.55;;
45764;SDS011;31474;45.332;10.230;2022-11-20T14:52:13;30.80;;;18.02;;
45764;SDS011;31474;45.332;10.230;2022-11-20T14:57:24;25.40;;;17.83;;
45764;SDS011;31474;45.332;10.230;2022-11-20T15:02:44;36.17;;;22.50;;
45764;SDS011;31474;45.332;10.230;2022-11-20T15:05:11;43.13;;;24.83;;
45764;SDS011;31474;45.332;10.230;2022-11-20T15:07:39;38.35;;;22.45;;
45764;SDS011;31474;45.332;10.230;2022-11-20T15:10:11;36.58;;;23.60;;
45764;SDS011;31474;45.332;10.230;2022-11-20T15:12:53;43.13;;;23.30;;
45764;SDS011;31474;45.332;10.230;2022-11-20T15:15:31;33.85;;;22.33;;
45764;SDS011;31474;45.332;10.230;2022-11-20T15:18:01;34.60;;;22.55;;
45764;SDS011;31474;45.332;10.230;2022-11-20T15:20:31;29.52;;;20.27;;
45764;SDS011;31474;45.332;10.230;2022-11-20T15:22:58;31.10;;;19.88;;
45764;SDS011;31474;45.332;10.230;2022-11-20T15:25:24;25.67;;;19.20;;
45764;SDS011;31474;45.332;10.230;2022-11-20T15:27:54;29.75;;;19.35;;
45764;SDS011;31474;45.332;10.230;2022-11-20T15:30:21;29.10;;;19.05;;
45764;SDS011;31474;45.332;10.230;2022-11-20T15:32:48;23.48;;;16.88;;
45764;SDS011;31474;45.332;10.230;2022-11-20T15:35:14;25.08;;;17.48;;
45764;SDS011;31474;45.332;10.230;2022-11-20T15:37:40;22.25;;;17.63;;
45764;SDS011;31474;45.332;10.230;2022-11-20T15:40:06;24.17;;;18.00;;
45764;SDS011;31474;45.332;10.230;2022-11-20T15:42:33;26.17;;;17.23;;
45764;SDS011;31474;45.332;10.230;2022-11-20T15:44:59;28.85;;;17.70;;
45764;SDS011;31474;45.332;10.230;2022-11-20T15:47:29;23.50;;;16.88;;
45764;SDS011;31474;45.332;10.230;2022-11-20T15:49:58;25.80;;;18.33;;
45764;SDS011;31474;45.332;10.230;2022-11-20T15:52:24;22.77;;;17.83;;
45764;SDS011;31474;45.332;10.230;2022-11-20T15:54:49;25.05;;;17.92;;
45764;SDS011;31474;45.332;10.230;2022-11-20T15:57:15;22.77;;;17.63;;
45764;SDS011;31474;45.332;10.230;2022-11-20T15:59:41;24.10;;;17.95;;